Time;durP1;ratioP1;P1;durP2;ratioP2;P2;SDS_P1;SDS_P2;PMS_P1;PMS_P2;Temp;Humidity;BMP_temperature;BMP_pressure;BME280_temperature;BME280_humidity;BME280_pressure;Samples;Min_cycle;Max_cycle;Signal;HPM_P1;HPM_P2
2022/01/27 00:00:31;;;;;;;39.35;29.13;;;7.60;96.70;;;;;;5078955;28;20273;-79
2022/01/27 00:05:02;;;;;;;38.85;28.27;;;7.60;96.70;;;;;;5076228;28;20139;-79
2022/01/27 00:07:32;;;;;;;41.42;30.05;;;7.50;96.70;;;;;;5080461;28;20039;-79
2022/01/27 00:10:14;;;;;;;39.78;30.35;;;7.50;96.70;;;;;;5078472;28;20040;-78
2022/01/27 00:12:43;;;;;;;37.90;28.98;;;7.50;96.70;;;;;;5060049;28;20045;-79
2022/01/27 00:15:14;;;;;;;40.58;30.05;;;7.50;96.70;;;;;;5073089;28;20041;-79
2022/01/27 00:17:55;;;;;;;42.63;29.50;;;7.50;96.70;;;;;;5097081;28;20405;-79
2022/01/27 00:20:23;;;;;;;38.03;29.20;;;7.50;96.70;;;;;;5083818;28;20500;-79
2022/01/27 00:22:52;;;;;;;36.15;28.52;;;7.50;96.70;;;;;;5077909;28;20040;-79
2022/01/27 00:25:22;;;;;;;41.08;29.88;;;7.30;96.70;;;;;;5076471;28;20130;-79
2022/01/27 00:27:51;;;;;;;43.72;30.65;;;7.30;96.70;;;;;;5060230;28;20044;-79
2022/01/27 00:30:19;;;;;;;36.03;28.75;;;7.20;96.70;;;;;;5084166;28;20047;-79
2022/01/27 00:32:47;;;;;;;37.58;27.92;;;7.10;96.70;;;;;;5078180;28;20102;-79
2022/01/27 00:35:16;;;;;;;37.30;27.88;;;6.90;96.70;;;;;;5080329;28;20052;-79
2022/01/27 00:37:44;;;;;;;38.17;28.90;;;7.00;96.70;;;;;;5077391;28;20040;-79
2022/01/27 00:40:13;;;;;;;37.08;28.63;;;6.90;96.70;;;;;;5073865;28;20086;-79
2022/01/27 00:42:44;;;;;;;35.33;28.10;;;6.80;96.70;;;;;;5091752;28;20040;-79
2022/01/27 00:45:13;;;;;;;36.40;27.52;;;6.90;96.70;;;;;;5085639;28;20068;-79
2022/01/27 00:47:41;;;;;;;39.45;27.23;;;7.10;96.70;;;;;;5084305;28;20557;-78
2022/01/27 00:50:10;;;;;;;35.35;27.55;;;7.10;96.70;;;;;;5083294;28;20125;-79
2022/01/27 00:52:43;;;;;;;37.03;27.90;;;7.10;96.70;;;;;;5083272;28;20058;-79
2022/01/27 00:55:13;;;;;;;38.55;27.42;;;7.10;96.70;;;;;;5083280;28;20093;-79
2022/01/27 01:00:38;;;;;;;33.25;26.15;;;7.10;96.70;;;;;;5084105;28;20051;-79
2022/01/27 01:03:12;;;;;;;36.67;27.00;;;7.00;96.70;;;;;;5082009;28;20085;-79
2022/01/27 01:06:00;;;;;;;35.60;27.73;;;6.90;96.70;;;;;;5079676;28;20040;-79
2022/01/27 01:11:33;;;;;;;39.78;27.88;;;6.90;96.70;;;;;;5101566;28;20047;-77
2022/01/27 01:19:27;;;;;;;42.22;29.00;;;6.80;96.70;;;;;;5084427;28;20559;-79
2022/01/27 01:32:54;;;;;;;35.58;27.92;;;6.90;96.70;;;;;;5082714;28;20043;-77
2022/01/27 01:35:46;;;;;;;35.92;27.67;;;6.80;96.70;;;;;;5073484;28;20497;-76
2022/01/27 01:38:17;;;;;;;37.08;27.73;;;6.80;96.70;;;;;;5083962;28;20052;-77
2022/01/27 01:40:46;;;;;;;36.47;27.92;;;6.90;96.70;;;;;;5081143;28;20052;-77
2022/01/27 01:43:15;;;;;;;36.83;27.27;;;6.90;96.70;;;;;;5086801;28;20032;-76
2022/01/27 01:45:45;;;;;;;37.35;26.85;;;7.00;96.70;;;;;;5079407;28;20182;-78
2022/01/27 01:48:15;;;;;;;37.00;26.98;;;7.10;96.70;;;;;;5077335;28;20151;-79
2022/01/27 01:50:44;;;;;;;36.20;27.75;;;7.10;96.70;;;;;;5077693;28;20059;-79
2022/01/27 01:53:12;;;;;;;37.28;27.52;;;7.10;96.70;;;;;;5083680;28;20400;-79
2022/01/27 01:55:40;;;;;;;37.70;27.98;;;7.00;96.70;;;;;;5074779;28;20037;-78
2022/01/27 01:58:08;;;;;;;33.53;26.02;;;7.00;96.70;;;;;;5082992;28;20059;-79
2022/01/27 02:00:36;;;;;;;31.83;25.90;;;7.00;96.70;;;;;;5081048;28;20408;-78
2022/01/27 02:03:06;;;;;;;34.40;26.15;;;7.00;96.70;;;;;;5083775;28;20051;-79
2022/01/27 02:05:40;;;;;;;36.42;27.52;;;6.90;96.70;;;;;;5081512;28;20152;-79
2022/01/27 02:19:13;;;;;;;35.25;27.48;;;7.10;96.70;;;;;;5081394;28;20143;-79
2022/01/27 02:21:50;;;;;;;37.78;28.38;;;7.20;96.70;;;;;;5082334;28;20047;-79
2022/01/27 02:24:19;;;;;;;37.05;28.58;;;7.20;96.70;;;;;;5074870;28;20450;-78
2022/01/27 02:26:49;;;;;;;36.85;28.20;;;7.20;96.70;;;;;;5080013;28;20040;-79
2022/01/27 02:29:18;;;;;;;35.08;26.83;;;7.20;96.70;;;;;;5072828;28;20044;-78
2022/01/27 02:31:47;;;;;;;32.22;23.75;;;7.20;96.70;;;;;;5076928;28;20043;-79
2022/01/27 02:34:15;;;;;;;29.13;21.63;;;7.20;96.70;;;;;;5060062;28;20527;-79
2022/01/27 02:36:44;;;;;;;29.23;20.92;;;7.20;96.70;;;;;;5075924;28;20490;-79
2022/01/27 02:39:14;;;;;;;29.50;22.25;;;7.10;96.70;;;;;;5082722;28;20076;-79
2022/01/27 02:41:45;;;;;;;27.40;20.58;;;7.20;96.70;;;;;;5082524;28;20040;-80
2022/01/27 02:44:24;;;;;;;24.45;18.88;;;7.20;96.70;;;;;;5083311;28;20044;-79
2022/01/27 02:46:52;;;;;;;25.17;19.10;;;7.10;96.70;;;;;;5060018;28;20051;-79
2022/01/27 02:49:20;;;;;;;24.33;18.95;;;7.10;96.70;;;;;;5081372;28;20170;-79
2022/01/27 02:51:48;;;;;;;26.92;20.05;;;7.00;96.70;;;;;;5059399;28;20546;-79
2022/01/27 02:54:18;;;;;;;25.35;18.88;;;7.10;96.70;;;;;;5068807;28;20051;-79
2022/01/27 02:56:47;;;;;;;23.30;19.38;;;7.10;96.70;;;;;;5079735;28;20048;-79
2022/01/27 02:59:16;;;;;;;27.50;20.05;;;7.10;96.70;;;;;;5062573;28;20050;-79
2022/01/27 03:01:46;;;;;;;27.23;20.50;;;7.10;96.70;;;;;;5074890;28;20167;-78
2022/01/27 03:04:14;;;;;;;25.95;19.75;;;7.20;96.70;;;;;;5082774;28;20048;-79
2022/01/27 03:06:45;;;;;;;26.55;20.05;;;7.10;96.70;;;;;;5083041;28;20047;-79
2022/01/27 03:09:13;;;;;;;22.35;19.13;;;7.10;96.70;;;;;;5078340;28;20489;-79
2022/01/27 03:11:46;;;;;;;22.30;19.20;;;7.10;96.70;;;;;;5079240;28;20405;-78
2022/01/27 03:14:15;;;;;;;28.27;20.60;;;7.10;96.70;;;;;;5080604;28;20036;-79
2022/01/27 03:16:43;;;;;;;27.35;20.67;;;7.10;96.70;;;;;;5080298;28;20039;-79
2022/01/27 03:19:12;;;;;;;26.23;19.85;;;7.10;96.70;;;;;;5098151;27;20408;-79
2022/01/27 03:21:41;;;;;;;27.58;20.25;;;7.10;96.70;;;;;;5082741;28;20056;-79
2022/01/27 03:24:09;;;;;;;25.13;19.77;;;7.10;96.70;;;;;;5083566;28;20036;-79
2022/01/27 03:26:37;;;;;;;27.25;19.15;;;7.10;96.70;;;;;;5078120;28;20040;-79
2022/01/27 03:29:06;;;;;;;26.60;18.77;;;7.10;96.70;;;;;;5078800;28;20048;-79
2022/01/27 03:31:35;;;;;;;24.05;19.48;;;7.00;96.70;;;;;;5079506;28;20138;-79
2022/01/27 03:34:03;;;;;;;26.75;19.60;;;7.00;96.70;;;;;;5079616;28;20052;-79
2022/01/27 03:36:31;;;;;;;26.17;19.15;;;7.00;96.70;;;;;;5080843;28;20089;-79
2022/01/27 03:38:59;;;;;;;24.88;19.75;;;7.10;96.70;;;;;;5080380;28;20063;-79
2022/01/27 03:41:32;;;;;;;26.48;20.58;;;7.10;96.70;;;;;;5076592;28;20051;-78
2022/01/27 03:44:00;;;;;;;25.75;19.80;;;7.10;96.70;;;;;;5079004;28;20047;-79
2022/01/27 03:46:30;;;;;;;25.20;19.05;;;7.10;96.70;;;;;;5084900;28;20036;-79
2022/01/27 03:48:58;;;;;;;26.58;19.67;;;7.10;96.70;;;;;;5063554;28;21157;-79
2022/01/27 03:51:27;;;;;;;22.30;18.45;;;7.10;96.70;;;;;;5079519;28;20039;-79
2022/01/27 03:53:55;;;;;;;25.38;18.85;;;7.10;96.70;;;;;;5080829;28;20142;-78
2022/01/27 03:56:23;;;;;;;25.20;19.80;;;7.20;96.70;;;;;;5069740;28;20176;-79
2022/01/27 03:58:51;;;;;;;26.30;21.13;;;7.20;96.70;;;;;;5065180;28;20732;-79
2022/01/27 04:01:19;;;;;;;24.98;20.45;;;7.10;96.70;;;;;;5080752;28;20601;-78
2022/01/27 04:03:49;;;;;;;25.00;20.15;;;7.10;96.70;;;;;;5077536;28;20081;-78
2022/01/27 04:06:21;;;;;;;25.75;19.40;;;7.10;96.70;;;;;;5066406;28;20496;-79
2022/01/27 04:08:49;;;;;;;27.85;20.63;;;7.10;96.70;;;;;;5079034;28;20527;-79
2022/01/27 04:11:17;;;;;;;27.83;20.55;;;7.10;96.70;;;;;;5062426;28;20361;-79
2022/01/27 04:13:45;;;;;;;25.80;19.65;;;7.20;96.70;;;;;;5076343;28;20044;-79
2022/01/27 04:16:13;;;;;;;25.13;19.30;;;7.20;96.70;;;;;;5080995;28;20408;-79
2022/01/27 04:18:42;;;;;;;26.45;19.08;;;7.20;96.70;;;;;;5081257;28;20135;-79
2022/01/27 04:21:11;;;;;;;25.48;19.27;;;7.20;96.70;;;;;;5089684;28;20063;-78
2022/01/27 04:23:39;;;;;;;24.08;20.30;;;7.20;96.70;;;;;;5081143;28;20055;-77
2022/01/27 04:26:08;;;;;;;23.50;19.33;;;7.30;96.70;;;;;;5082299;28;20599;-77
2022/01/27 04:28:38;;;;;;;25.73;19.58;;;7.30;96.70;;;;;;5081309;28;20036;-77
2022/01/27 04:31:08;;;;;;;22.85;19.05;;;7.30;96.70;;;;;;5069328;28;20073;-78
2022/01/27 04:33:38;;;;;;;26.20;20.15;;;7.30;96.70;;;;;;5081715;28;20066;-78
2022/01/27 04:36:18;;;;;;;22.83;18.52;;;7.20;96.70;;;;;;5079495;28;20076;-77
2022/01/27 04:38:55;;;;;;;22.25;18.63;;;7.30;96.70;;;;;;5062075;28;20051;-78
2022/01/27 04:41:43;;;;;;;27.23;20.05;;;7.30;96.70;;;;;;5081569;28;20067;-78
2022/01/27 04:49:12;;;;;;;25.83;18.73;;;7.30;96.70;;;;;;5082045;28;20051;-78
2022/01/27 04:51:40;;;;;;;24.50;19.05;;;7.30;96.70;;;;;;5081939;28;20040;-78
2022/01/27 04:56:42;;;;;;;28.33;20.52;;;7.20;96.70;;;;;;5081128;28;20340;-78
2022/01/27 04:59:18;;;;;;;27.52;18.55;;;7.20;96.70;;;;;;5079663;28;20046;-78
2022/01/27 05:01:51;;;;;;;24.13;19.20;;;7.20;96.70;;;;;;5074970;28;20047;-78
2022/01/27 05:04:23;;;;;;;25.20;18.52;;;7.10;96.70;;;;;;5084240;28;20044;-77
2022/01/27 05:06:51;;;;;;;24.25;19.48;;;7.20;96.70;;;;;;5080419;28;20517;-78
2022/01/27 05:09:23;;;;;;;23.48;19.20;;;7.20;96.70;;;;;;5084269;28;20047;-77
2022/01/27 05:11:56;;;;;;;23.58;18.58;;;7.20;96.70;;;;;;5080386;28;20160;-78
2022/01/27 05:14:25;;;;;;;26.33;18.27;;;7.20;96.70;;;;;;5083511;28;20055;-78
2022/01/27 05:16:54;;;;;;;24.52;18.25;;;7.20;96.70;;;;;;5077036;28;20051;-78
2022/01/27 05:19:22;;;;;;;24.65;18.70;;;7.10;96.70;;;;;;5081455;28;20063;-78
2022/01/27 05:21:51;;;;;;;24.85;18.00;;;7.20;96.70;;;;;;5086837;28;20154;-76
2022/01/27 05:24:23;;;;;;;24.60;17.67;;;7.20;96.70;;;;;;5060602;28;20055;-76
2022/01/27 05:26:51;;;;;;;22.98;16.90;;;7.10;96.70;;;;;;5082280;28;20109;-76
2022/01/27 05:29:20;;;;;;;23.85;18.02;;;7.20;96.70;;;;;;5074392;28;20044;-76
2022/01/27 05:31:49;;;;;;;19.75;15.73;;;7.10;96.70;;;;;;5085416;28;20039;-76
2022/01/27 05:34:18;;;;;;;21.73;16.15;;;7.10;96.70;;;;;;5081037;28;20523;-76
2022/01/27 05:36:46;;;;;;;21.27;16.50;;;7.20;96.70;;;;;;5080140;28;20036;-75
2022/01/27 05:39:15;;;;;;;21.70;16.25;;;7.20;96.70;;;;;;5083281;28;20044;-76
2022/01/27 05:41:45;;;;;;;20.58;16.55;;;7.20;96.70;;;;;;5084655;28;20046;-76
2022/01/27 05:44:13;;;;;;;21.60;16.38;;;7.20;96.70;;;;;;5095254;27;20070;-78
2022/01/27 05:46:42;;;;;;;21.85;16.98;;;7.10;96.70;;;;;;5084766;28;20355;-78
2022/01/27 05:49:10;;;;;;;22.33;17.85;;;7.10;96.70;;;;;;5081195;28;20051;-76
2022/01/27 05:51:39;;;;;;;21.23;15.80;;;7.10;96.70;;;;;;5082920;28;20036;-76
2022/01/27 05:54:07;;;;;;;22.40;17.67;;;7.10;96.70;;;;;;5079384;28;20044;-76
2022/01/27 05:56:36;;;;;;;22.52;17.90;;;7.10;96.70;;;;;;5069091;28;20071;-76
2022/01/27 05:59:06;;;;;;;24.67;17.23;;;7.10;96.70;;;;;;5076468;28;20648;-76
2022/01/27 06:01:35;;;;;;;20.52;17.27;;;7.10;96.70;;;;;;5079799;28;20044;-76
2022/01/27 06:04:04;;;;;;;22.45;18.27;;;7.20;96.70;;;;;;5078435;28;20040;-76
2022/01/27 06:06:32;;;;;;;21.40;17.63;;;7.20;96.70;;;;;;5079689;28;20059;-75
2022/01/27 06:09:00;;;;;;;26.48;19.10;;;7.20;96.70;;;;;;5080676;28;20501;-75
2022/01/27 06:11:29;;;;;;;24.42;19.17;;;7.20;96.70;;;;;;5085756;28;20052;-76
2022/01/27 06:13:57;;;;;;;23.42;18.92;;;7.20;96.70;;;;;;5080379;28;20602;-76
2022/01/27 06:16:27;;;;;;;26.45;18.90;;;7.20;96.70;;;;;;5078110;28;20036;-76
2022/01/27 06:18:56;;;;;;;24.40;18.20;;;7.20;96.70;;;;;;5078338;28;20145;-76
2022/01/27 06:21:24;;;;;;;25.08;18.95;;;7.20;96.70;;;;;;5083551;28;20550;-76
2022/01/27 06:23:53;;;;;;;23.25;18.40;;;7.20;96.70;;;;;;5053321;28;20040;-75
2022/01/27 06:26:22;;;;;;;26.13;20.17;;;7.20;96.70;;;;;;5078068;28;20063;-76
2022/01/27 06:28:51;;;;;;;27.65;18.95;;;7.20;96.70;;;;;;5067813;28;20048;-76
2022/01/27 06:31:19;;;;;;;26.42;19.05;;;7.20;96.70;;;;;;5082877;28;20042;-76
2022/01/27 06:33:52;;;;;;;24.60;19.88;;;7.20;96.70;;;;;;5076934;28;20052;-75
2022/01/27 06:36:20;;;;;;;26.00;19.80;;;7.20;96.70;;;;;;5077819;28;20510;-74
2022/01/27 06:38:54;;;;;;;24.67;19.95;;;7.10;96.70;;;;;;5077117;28;20052;-77
2022/01/27 06:41:22;;;;;;;25.10;19.27;;;7.10;96.70;;;;;;5077829;28;20516;-76
2022/01/27 06:43:54;;;;;;;25.13;19.33;;;7.10;96.70;;;;;;5077698;28;20040;-76
2022/01/27 06:46:22;;;;;;;26.00;19.42;;;7.20;96.70;;;;;;5083135;28;20118;-76
2022/01/27 06:48:52;;;;;;;30.20;21.00;;;7.30;96.70;;;;;;5077869;28;20044;-77
2022/01/27 06:51:23;;;;;;;24.90;19.48;;;7.30;96.70;;;;;;5076459;28;20067;-76
2022/01/27 06:53:51;;;;;;;27.38;20.90;;;7.20;96.70;;;;;;5078712;28;20040;-76
2022/01/27 06:56:20;;;;;;;28.05;21.30;;;7.20;96.70;;;;;;5062146;28;20700;-75
2022/01/27 06:58:48;;;;;;;27.98;22.00;;;7.20;96.70;;;;;;5060063;28;20094;-76
2022/01/27 07:01:17;;;;;;;28.67;22.75;;;7.20;96.70;;;;;;5062729;28;20567;-75
2022/01/27 07:03:45;;;;;;;28.15;21.92;;;7.20;96.70;;;;;;5081296;28;20044;-76
2022/01/27 07:06:15;;;;;;;26.50;21.48;;;7.20;96.70;;;;;;5075320;28;20060;-77
2022/01/27 07:08:44;;;;;;;32.38;23.15;;;7.30;96.70;;;;;;5074745;28;20152;-77
2022/01/27 07:11:12;;;;;;;26.65;20.98;;;7.30;96.70;;;;;;5080898;28;20040;-77
2022/01/27 07:13:42;;;;;;;25.10;20.48;;;7.30;96.70;;;;;;5080003;28;20397;-77
2022/01/27 07:16:11;;;;;;;29.95;20.77;;;7.30;96.70;;;;;;5079969;28;20105;-77
2022/01/27 07:18:39;;;;;;;24.88;20.88;;;7.30;96.70;;;;;;5077306;28;20456;-77
2022/01/27 07:21:08;;;;;;;26.38;20.17;;;7.40;96.70;;;;;;5079046;28;20149;-77
2022/01/27 07:23:38;;;;;;;27.70;19.75;;;7.40;96.70;;;;;;5061331;28;20122;-76
2022/01/27 07:26:07;;;;;;;28.58;21.40;;;7.50;96.70;;;;;;5076879;28;20408;-76
2022/01/27 07:28:36;;;;;;;25.90;21.38;;;7.50;96.70;;;;;;5081454;28;20046;-75
2022/01/27 07:31:05;;;;;;;27.52;20.88;;;7.50;96.70;;;;;;5076060;28;20478;-77
2022/01/27 07:33:34;;;;;;;27.58;22.23;;;7.50;96.70;;;;;;5078100;28;20696;-77
2022/01/27 07:36:03;;;;;;;29.65;21.92;;;7.50;96.70;;;;;;5078441;28;20042;-77
2022/01/27 07:38:31;;;;;;;30.83;23.38;;;7.40;96.70;;;;;;5066061;28;20146;-78
2022/01/27 07:41:01;;;;;;;27.48;22.17;;;7.40;96.70;;;;;;5077201;28;20061;-77
2022/01/27 07:43:30;;;;;;;29.83;22.20;;;7.50;96.70;;;;;;5071374;28;20044;-77
2022/01/27 07:45:59;;;;;;;31.52;23.55;;;7.60;96.70;;;;;;5060783;28;20494;-77
2022/01/27 07:48:28;;;;;;;26.73;21.55;;;7.70;96.70;;;;;;5081294;28;20116;-77
2022/01/27 07:51:02;;;;;;;29.77;24.23;;;7.70;96.70;;;;;;5078114;28;20043;-78
2022/01/27 07:53:31;;;;;;;25.95;21.17;;;7.70;96.70;;;;;;5084547;28;20043;-78
2022/01/27 07:56:20;;;;;;;28.98;22.73;;;7.70;96.70;;;;;;5082409;28;20069;-78
2022/01/27 07:58:49;;;;;;;29.98;22.85;;;7.80;96.70;;;;;;5083585;28;20226;-78
2022/01/27 08:01:17;;;;;;;31.40;22.65;;;7.80;96.70;;;;;;5084283;28;20351;-78
2022/01/27 08:03:46;;;;;;;28.08;21.90;;;7.80;96.70;;;;;;5081276;28;20073;-77
2022/01/27 08:06:14;;;;;;;29.10;22.08;;;7.80;96.70;;;;;;5086045;28;20040;-77
2022/01/27 08:08:43;;;;;;;30.98;23.08;;;7.90;96.70;;;;;;5082013;28;20515;-78
2022/01/27 08:11:12;;;;;;;29.05;22.70;;;7.80;96.70;;;;;;5083329;28;20079;-78
2022/01/27 08:13:41;;;;;;;27.88;22.33;;;7.80;96.70;;;;;;5067369;28;20131;-77
2022/01/27 08:16:10;;;;;;;30.73;22.80;;;7.80;96.70;;;;;;5087563;28;20604;-77
2022/01/27 08:18:46;;;;;;;28.55;22.60;;;7.90;96.70;;;;;;5084383;28;20481;-77
2022/01/27 08:21:15;;;;;;;31.40;23.38;;;7.90;96.70;;;;;;5084978;28;20048;-76
2022/01/27 08:23:44;;;;;;;30.30;22.20;;;7.90;96.70;;;;;;5085119;28;21275;-82
2022/01/27 08:26:25;;;;;;;35.17;24.75;;;7.90;96.70;;;;;;5087695;28;20079;-82
2022/01/27 08:29:10;;;;;;;29.35;23.35;;;7.90;96.70;;;;;;5065422;28;20043;-82
2022/01/27 08:32:01;;;;;;;34.15;24.75;;;7.90;96.70;;;;;;5083799;28;20101;-82
2022/01/27 08:34:34;;;;;;;31.15;23.50;;;8.00;96.70;;;;;;5086802;28;20082;-80
2022/01/27 08:37:05;;;;;;;30.52;23.38;;;8.00;96.70;;;;;;5087397;28;20048;-81
2022/01/27 08:39:34;;;;;;;30.95;23.23;;;8.00;96.70;;;;;;5083085;28;20048;-81
2022/01/27 08:42:04;;;;;;;28.30;22.83;;;8.10;96.70;;;;;;5084662;28;20078;-79
2022/01/27 08:44:34;;;;;;;28.40;22.13;;;8.10;96.70;;;;;;5099041;27;20050;-81
2022/01/27 08:47:04;;;;;;;29.05;22.73;;;8.10;96.70;;;;;;5075557;28;20139;-81
2022/01/27 08:49:33;;;;;;;28.33;21.75;;;8.10;96.70;;;;;;5086147;28;20063;-81
2022/01/27 08:52:04;;;;;;;25.60;20.92;;;8.20;96.70;;;;;;5078989;28;20046;-83
2022/01/27 08:54:32;;;;;;;28.85;22.08;;;8.10;96.70;;;;;;5082711;28;20058;-82
2022/01/27 08:57:01;;;;;;;26.75;20.75;;;8.20;96.70;;;;;;5080309;28;20089;-81
2022/01/27 08:59:29;;;;;;;24.52;21.02;;;8.20;96.70;;;;;;5084583;28;20071;-82
2022/01/27 09:01:59;;;;;;;27.98;21.88;;;8.20;96.70;;;;;;5085137;28;20123;-81
2022/01/27 09:04:28;;;;;;;35.65;23.63;;;8.20;96.70;;;;;;5088335;28;20039;-81
2022/01/27 09:06:56;;;;;;;32.53;24.13;;;8.20;96.70;;;;;;5083410;28;20117;-81
2022/01/27 09:09:25;;;;;;;31.98;25.35;;;8.20;96.70;;;;;;5082720;28;20044;-80
2022/01/27 09:11:55;;;;;;;35.25;25.70;;;8.30;96.70;;;;;;5085301;28;20063;-81
2022/01/27 09:14:28;;;;;;;39.70;25.80;;;8.30;96.70;;;;;;5076706;28;20040;-81
2022/01/27 09:16:56;;;;;;;34.83;26.40;;;8.30;96.70;;;;;;5083806;28;20037;-81
2022/01/27 09:19:26;;;;;;;33.15;26.25;;;8.30;96.70;;;;;;5070237;28;20115;-81
2022/01/27 09:21:55;;;;;;;33.58;25.33;;;8.30;96.70;;;;;;5087581;28;20044;-81
2022/01/27 09:24:29;;;;;;;34.22;26.33;;;8.40;96.70;;;;;;5081560;28;20036;-81
2022/01/27 09:27:01;;;;;;;35.20;26.13;;;8.40;96.70;;;;;;5082453;28;20069;-81
2022/01/27 09:29:29;;;;;;;31.70;24.45;;;8.40;96.70;;;;;;5082538;28;20142;-81
2022/01/27 09:31:58;;;;;;;34.05;25.10;;;8.40;96.70;;;;;;5065851;28;20043;-82
2022/01/27 09:34:28;;;;;;;35.42;26.08;;;8.50;96.70;;;;;;5081723;28;20041;-81
2022/01/27 09:36:57;;;;;;;32.85;24.20;;;8.50;96.70;;;;;;5083610;28;20085;-82
2022/01/27 09:39:25;;;;;;;34.10;24.15;;;8.60;96.70;;;;;;5079376;28;20040;-81
2022/01/27 09:41:55;;;;;;;31.35;22.80;;;8.60;96.70;;;;;;5082880;28;20040;-82
2022/01/27 09:44:30;;;;;;;30.23;23.52;;;8.60;96.70;;;;;;5085726;28;20138;-82
2022/01/27 09:47:01;;;;;;;30.30;22.65;;;8.60;96.70;;;;;;5081066;28;20405;-81
2022/01/27 09:49:43;;;;;;;31.75;23.73;;;8.70;96.70;;;;;;5081318;28;20157;-82
2022/01/27 09:52:17;;;;;;;31.52;23.25;;;8.70;96.70;;;;;;5083144;28;20049;-81
2022/01/27 09:54:46;;;;;;;29.85;22.65;;;8.70;96.70;;;;;;5079592;28;20044;-81
2022/01/27 09:57:16;;;;;;;27.73;22.75;;;8.80;96.70;;;;;;5087121;28;20048;-82
2022/01/27 09:59:46;;;;;;;28.27;21.92;;;8.80;96.70;;;;;;5073492;28;20522;-82
2022/01/27 10:02:17;;;;;;;27.25;23.88;;;8.80;96.70;;;;;;5083220;28;20549;-81
2022/01/27 10:04:48;;;;;;;31.45;24.27;;;8.90;96.70;;;;;;5065156;28;20041;-81
2022/01/27 10:07:18;;;;;;;29.80;22.60;;;8.90;96.70;;;;;;5086789;28;20480;-82
2022/01/27 10:10:00;;;;;;;31.48;23.88;;;9.00;96.70;;;;;;5085460;28;20094;-80
2022/01/27 10:12:33;;;;;;;32.17;24.45;;;9.00;96.70;;;;;;5085406;28;20097;-81
2022/01/27 10:15:04;;;;;;;27.85;23.35;;;9.00;96.70;;;;;;5064926;28;20480;-81
2022/01/27 10:17:37;;;;;;;32.45;24.88;;;9.00;96.70;;;;;;5064894;28;20093;-81
2022/01/27 10:20:17;;;;;;;31.27;23.65;;;9.00;96.70;;;;;;5078880;28;20105;-81
2022/01/27 10:23:08;;;;;;;29.48;21.92;;;9.00;96.70;;;;;;5056873;28;20057;-82
2022/01/27 10:25:46;;;;;;;29.45;22.52;;;9.10;96.70;;;;;;5102292;27;20039;-82
2022/01/27 10:31:11;;;;;;;26.30;22.10;;;9.20;96.70;;;;;;5099379;27;20040;-82
2022/01/27 10:33:51;;;;;;;25.67;21.83;;;9.20;96.70;;;;;;5076453;28;20044;-81
2022/01/27 10:36:24;;;;;;;26.30;22.27;;;9.30;96.70;;;;;;5064669;28;20552;-82
2022/01/27 10:38:55;;;;;;;30.77;23.27;;;9.40;96.70;;;;;;5078262;28;20050;-81
2022/01/27 10:41:24;;;;;;;30.40;22.90;;;9.40;96.70;;;;;;5065538;28;20139;-81
2022/01/27 10:44:06;;;;;;;26.83;23.02;;;9.30;96.70;;;;;;5078801;28;20032;-81
2022/01/27 10:46:37;;;;;;;29.02;22.65;;;9.50;96.70;;;;;;5060826;28;20133;-81
2022/01/27 10:49:18;;;;;;;29.48;23.05;;;9.50;96.70;;;;;;5085586;28;20040;-80
2022/01/27 10:51:53;;;;;;;27.73;23.83;;;9.60;96.70;;;;;;5076511;28;20032;-80
2022/01/27 10:54:33;;;;;;;29.45;23.13;;;9.70;96.70;;;;;;5082003;28;20052;-80
2022/01/27 10:57:02;;;;;;;29.75;22.85;;;9.80;96.70;;;;;;5062579;28;20420;-79
2022/01/27 10:59:32;;;;;;;26.98;23.55;;;9.90;96.70;;;;;;5083409;28;21018;-80
2022/01/27 11:02:07;;;;;;;30.27;22.52;;;10.00;96.70;;;;;;5081185;28;20043;-81
2022/01/27 11:04:37;;;;;;;25.58;21.48;;;10.10;96.70;;;;;;5069703;28;20604;-81
2022/01/27 11:07:09;;;;;;;28.27;22.17;;;10.10;96.70;;;;;;5078971;28;20048;-79
2022/01/27 11:09:41;;;;;;;27.02;22.20;;;10.20;96.70;;;;;;5078795;28;20079;-81
2022/01/27 11:12:16;;;;;;;27.17;21.25;;;10.20;96.70;;;;;;5078509;28;20040;-80
2022/01/27 11:14:47;;;;;;;23.30;20.85;;;10.30;96.70;;;;;;5084630;28;20047;-81
2022/01/27 11:17:19;;;;;;;26.35;21.70;;;10.30;96.70;;;;;;5081421;28;20046;-81
2022/01/27 11:27:43;;;;;;;25.40;21.73;;;10.40;96.70;;;;;;5076765;28;20047;-81
2022/01/27 11:30:16;;;;;;;27.05;22.27;;;10.50;96.70;;;;;;5076995;28;20040;-81
2022/01/27 11:32:51;;;;;;;24.90;21.48;;;10.50;96.70;;;;;;5084559;28;20044;-80
2022/01/27 11:35:21;;;;;;;26.42;22.10;;;10.50;96.70;;;;;;5081562;28;20048;-80
2022/01/27 11:37:54;;;;;;;25.15;21.23;;;10.60;96.70;;;;;;5081377;28;20580;-80
2022/01/27 11:40:34;;;;;;;23.67;20.02;;;10.60;96.70;;;;;;5076426;28;20402;-82
2022/01/27 11:43:08;;;;;;;27.70;22.13;;;10.60;96.70;;;;;;5078814;28;20102;-83
2022/01/27 11:45:38;;;;;;;26.38;20.52;;;10.60;96.70;;;;;;5079638;28;20047;-81
2022/01/27 11:48:10;;;;;;;26.70;21.52;;;10.70;96.70;;;;;;5082168;28;20040;-80
2022/01/27 11:50:58;;;;;;;26.42;20.90;;;10.70;96.70;;;;;;5078732;28;20518;-80
2022/01/27 11:53:36;;;;;;;26.02;21.55;;;10.70;96.70;;;;;;5077157;28;20131;-81
2022/01/27 11:56:07;;;;;;;24.90;20.73;;;10.80;96.70;;;;;;5077644;28;20123;-80
2022/01/27 11:58:47;;;;;;;24.75;20.63;;;10.90;96.70;;;;;;5079982;28;20543;-80
2022/01/27 12:01:18;;;;;;;25.60;20.30;;;10.90;96.70;;;;;;5077457;28;20050;-79
2022/01/27 12:04:15;;;;;;;25.92;19.98;;;10.90;96.70;;;;;;5062956;28;20040;-80
2022/01/27 12:07:05;;;;;;;24.77;21.80;;;11.00;96.70;;;;;;5080155;28;20044;-80
2022/01/27 12:09:37;;;;;;;29.08;21.77;;;10.90;96.70;;;;;;5074469;28;20036;-80
2022/01/27 12:12:13;;;;;;;27.08;21.88;;;11.00;96.70;;;;;;5079288;28;20043;-80
2022/01/27 12:15:02;;;;;;;25.58;21.92;;;11.00;96.70;;;;;;5077639;28;20090;-80
2022/01/27 12:17:30;;;;;;;28.98;22.25;;;11.10;96.70;;;;;;5078169;28;20051;-80
2022/01/27 12:20:01;;;;;;;27.08;23.08;;;11.10;96.70;;;;;;5078302;28;20048;-80
2022/01/27 12:23:04;;;;;;;26.60;22.90;;;11.20;96.70;;;;;;5082448;28;20040;-80
2022/01/27 12:25:50;;;;;;;30.38;23.48;;;11.20;96.70;;;;;;5078855;28;20040;-80
2022/01/27 12:28:20;;;;;;;28.77;24.80;;;11.30;96.70;;;;;;5080940;28;20048;-80
2022/01/27 12:30:56;;;;;;;29.85;22.90;;;11.30;96.70;;;;;;5078744;28;20351;-81
2022/01/27 12:33:25;;;;;;;30.42;22.35;;;11.30;96.70;;;;;;5077610;28;20133;-80
2022/01/27 12:35:56;;;;;;;28.70;23.35;;;11.30;96.70;;;;;;5078125;28;20036;-80
2022/01/27 12:38:25;;;;;;;29.20;22.67;;;11.20;96.70;;;;;;5079847;28;20075;-80
2022/01/27 12:40:58;;;;;;;27.73;22.50;;;11.20;96.70;;;;;;5081146;28;20556;-80
2022/01/27 12:43:26;;;;;;;26.88;23.90;;;11.10;96.70;;;;;;5080880;28;20162;-79
2022/01/27 12:45:59;;;;;;;28.45;23.33;;;11.10;96.70;;;;;;5085249;28;20036;-80
2022/01/27 12:48:27;;;;;;;32.75;23.90;;;11.10;96.70;;;;;;5082652;28;20089;-80
2022/01/27 12:51:01;;;;;;;32.13;23.88;;;11.10;96.70;;;;;;5083230;28;20250;-79
2022/01/27 12:53:31;;;;;;;28.60;22.35;;;11.20;96.70;;;;;;5081625;28;20036;-80
2022/01/27 12:56:07;;;;;;;29.88;23.33;;;11.20;96.70;;;;;;5087807;28;20101;-80
2022/01/27 12:58:35;;;;;;;25.52;22.30;;;11.20;96.70;;;;;;5062233;28;20032;-80
2022/01/27 13:01:03;;;;;;;30.45;23.17;;;11.20;96.70;;;;;;5064943;28;20071;-80
2022/01/27 13:03:31;;;;;;;29.75;22.40;;;11.30;96.70;;;;;;5081084;28;20051;-80
2022/01/27 13:06:03;;;;;;;28.83;22.90;;;11.30;96.70;;;;;;5085910;28;20032;-80
2022/01/27 13:08:33;;;;;;;27.77;22.85;;;11.30;96.70;;;;;;5082326;28;20921;-80
2022/01/27 13:11:09;;;;;;;29.92;22.75;;;11.30;96.70;;;;;;5082981;28;20048;-80
2022/01/27 13:13:40;;;;;;;28.00;23.75;;;11.30;96.70;;;;;;5080597;28;20083;-80
2022/01/27 13:16:16;;;;;;;30.52;23.13;;;11.30;96.70;;;;;;5082683;28;20458;-80
2022/01/27 13:19:02;;;;;;;30.10;23.25;;;11.30;96.70;;;;;;5082390;28;20532;-80
2022/01/27 13:21:33;;;;;;;28.70;22.38;;;11.30;96.70;;;;;;5083909;28;20468;-80
2022/01/27 13:24:03;;;;;;;29.10;22.65;;;11.20;96.70;;;;;;5064801;28;20127;-80
2022/01/27 13:26:33;;;;;;;28.05;21.55;;;11.20;96.70;;;;;;5078098;28;20044;-80
2022/01/27 13:29:02;;;;;;;32.92;22.92;;;11.20;96.70;;;;;;5077233;28;20043;-80
2022/01/27 13:31:30;;;;;;;28.27;23.70;;;11.20;96.70;;;;;;5082405;28;20093;-80
2022/01/27 13:34:03;;;;;;;28.20;23.40;;;11.20;96.70;;;;;;5083421;28;20109;-80
2022/01/27 13:36:36;;;;;;;30.85;21.95;;;11.20;96.70;;;;;;5065025;28;20121;-80
2022/01/27 13:42:07;;;;;;;33.33;22.70;;;11.30;96.70;;;;;;5091377;28;20183;-80
2022/01/27 13:44:49;;;;;;;32.13;23.50;;;11.30;96.70;;;;;;5084049;28;20048;-80
2022/01/27 13:47:25;;;;;;;35.40;22.58;;;11.30;96.70;;;;;;5077360;28;20498;-80
2022/01/27 13:50:03;;;;;;;29.45;21.40;;;11.40;96.70;;;;;;5080917;28;20127;-80
2022/01/27 13:52:41;;;;;;;28.77;21.13;;;11.40;96.70;;;;;;5084546;28;20455;-80